Time;durP1;ratioP1;P1;durP2;ratioP2;P2;SDS_P1;SDS_P2;PMS_P1;PMS_P2;Temp;Humidity;BMP_temperature;BMP_pressure;BME280_temperature;BME280_humidity;BME280_pressure;Samples;Min_cycle;Max_cycle;Signal;HPM_P1;HPM_P2
2023/03/31 00:00:33;;;;;;;19.38;3.25;;;10.20;99.90;;;;;;5115000;28;20032;-81
2023/03/31 00:03:01;;;;;;;25.17;3.88;;;10.20;99.90;;;;;;5115297;28;20031;-81
2023/03/31 00:05:28;;;;;;;19.23;3.88;;;10.20;99.90;;;;;;5115184;28;20032;-81
2023/03/31 00:08:02;;;;;;;16.52;3.90;;;10.20;99.90;;;;;;5098454;28;20042;-81
2023/03/31 00:10:32;;;;;;;20.73;3.38;;;10.20;99.90;;;;;;5131690;28;20512;-81
2023/03/31 00:13:00;;;;;;;17.50;3.10;;;10.20;99.90;;;;;;5131858;28;20050;-81
2023/03/31 00:15:27;;;;;;;15.65;3.38;;;10.30;99.90;;;;;;5130940;28;20055;-81
2023/03/31 00:17:59;;;;;;;24.45;3.67;;;10.30;99.90;;;;;;5147232;28;20075;-81
2023/03/31 00:20:25;;;;;;;15.60;2.97;;;10.30;99.90;;;;;;5120285;28;20071;-81
2023/03/31 00:22:53;;;;;;;26.35;4.18;;;10.30;99.90;;;;;;5098523;28;20081;-81
2023/03/31 00:25:20;;;;;;;14.88;2.85;;;10.30;99.90;;;;;;5115123;28;20113;-81
2023/03/31 00:27:49;;;;;;;21.17;3.60;;;10.30;99.90;;;;;;5148186;28;20052;-81
2023/03/31 00:30:15;;;;;;;22.17;3.13;;;10.30;99.90;;;;;;5131551;28;20047;-81
2023/03/31 00:32:42;;;;;;;21.10;3.60;;;10.30;99.90;;;;;;5114674;28;20043;-81
2023/03/31 00:35:09;;;;;;;22.30;3.38;;;10.30;99.90;;;;;;5131429;28;20040;-81
2023/03/31 00:37:36;;;;;;;20.50;3.05;;;10.30;99.90;;;;;;5098167;28;20044;-81
2023/03/31 00:40:08;;;;;;;24.10;3.72;;;10.30;99.90;;;;;;5114794;28;20039;-81
2023/03/31 00:42:40;;;;;;;19.48;4.55;;;10.30;99.90;;;;;;5131457;28;20032;-81
2023/03/31 00:45:13;;;;;;;26.08;3.83;;;10.30;99.90;;;;;;5110915;28;20047;-81
2023/03/31 00:48:10;;;;;;;18.50;2.92;;;10.20;99.90;;;;;;5121133;28;20040;-81
2023/03/31 00:50:42;;;;;;;22.95;3.38;;;10.20;99.90;;;;;;5127314;28;20048;-81
2023/03/31 00:53:14;;;;;;;16.95;3.00;;;10.10;99.90;;;;;;5119554;28;20044;-80
2023/03/31 00:56:05;;;;;;;19.00;3.03;;;10.10;99.90;;;;;;5130951;28;20046;-81
2023/03/31 00:58:32;;;;;;;24.65;3.65;;;10.10;99.90;;;;;;5142416;28;20043;-81
2023/03/31 01:01:02;;;;;;;12.93;2.70;;;10.00;99.90;;;;;;5114533;28;20036;-81
2023/03/31 01:03:32;;;;;;;17.55;3.15;;;10.00;99.90;;;;;;5131369;28;20039;-81
2023/03/31 01:06:04;;;;;;;17.90;3.00;;;9.90;99.90;;;;;;5113949;28;20047;-81
2023/03/31 01:08:31;;;;;;;17.20;4.00;;;9.90;99.90;;;;;;5129297;28;20124;-81
2023/03/31 01:11:03;;;;;;;17.98;3.00;;;9.80;99.90;;;;;;5130958;28;20507;-81
2023/03/31 01:13:30;;;;;;;17.90;2.67;;;9.80;99.90;;;;;;5130964;28;20040;-81
2023/03/31 01:15:58;;;;;;;18.25;3.45;;;9.80;99.90;;;;;;5130425;28;20126;-81
2023/03/31 01:18:26;;;;;;;15.77;3.30;;;9.70;99.90;;;;;;5113911;28;20040;-81
2023/03/31 01:21:29;;;;;;;17.92;3.17;;;9.20;99.90;;;;;;5110296;28;20202;-81
2023/03/31 01:24:11;;;;;;;15.77;2.78;;;9.60;99.90;;;;;;5110119;28;20052;-81
2023/03/31 01:26:40;;;;;;;16.55;3.50;;;9.60;99.90;;;;;;5130377;28;20484;-81
2023/03/31 01:29:35;;;;;;;20.55;3.30;;;9.50;99.90;;;;;;5147626;28;20036;-82
2023/03/31 01:32:11;;;;;;;18.98;3.35;;;9.50;99.90;;;;;;5130088;28;20059;-81
2023/03/31 01:34:44;;;;;;;19.05;3.00;;;9.50;99.90;;;;;;5130025;28;20083;-82
2023/03/31 01:37:29;;;;;;;20.40;2.80;;;9.40;99.90;;;;;;5130855;28;20434;-82
2023/03/31 01:40:14;;;;;;;19.02;2.92;;;9.40;99.90;;;;;;5147356;28;20039;-79
2023/03/31 01:43:02;;;;;;;18.42;2.83;;;9.30;99.90;;;;;;5128695;28;20032;-79
2023/03/31 01:45:29;;;;;;;15.05;2.35;;;9.30;99.90;;;;;;5110080;28;20036;-79
2023/03/31 01:48:05;;;;;;;19.13;3.10;;;9.30;99.90;;;;;;5109445;28;20044;-80
2023/03/31 01:50:41;;;;;;;17.98;2.72;;;9.30;99.90;;;;;;5126579;28;20085;-79
2023/03/31 01:53:29;;;;;;;24.52;3.67;;;9.20;99.90;;;;;;5126882;28;20040;-79
2023/03/31 01:56:17;;;;;;;21.33;2.88;;;9.20;99.90;;;;;;5117052;28;20046;-79
2023/03/31 01:58:58;;;;;;;14.02;2.30;;;9.20;99.90;;;;;;5129757;28;20047;-79
2023/03/31 02:01:36;;;;;;;19.17;2.50;;;9.20;99.90;;;;;;5129825;28;20510;-78
2023/03/31 02:04:09;;;;;;;17.08;2.33;;;9.10;99.90;;;;;;5129535;28;20130;-79
2023/03/31 02:06:41;;;;;;;16.65;2.90;;;9.10;99.90;;;;;;5146842;28;20047;-79
2023/03/31 02:09:13;;;;;;;18.30;2.35;;;9.10;99.90;;;;;;5146623;28;20043;-79
2023/03/31 02:11:41;;;;;;;14.85;2.60;;;9.10;99.90;;;;;;5129777;28;20095;-79
2023/03/31 02:14:11;;;;;;;14.68;2.83;;;9.10;99.90;;;;;;5112778;28;20051;-80
2023/03/31 02:16:46;;;;;;;21.17;2.92;;;9.00;99.90;;;;;;5129737;28;20046;-79
2023/03/31 02:19:17;;;;;;;17.50;2.95;;;9.00;99.90;;;;;;5130233;28;20032;-79
2023/03/31 02:21:48;;;;;;;17.88;3.05;;;9.00;99.90;;;;;;5129305;28;20404;-80
2023/03/31 02:24:18;;;;;;;18.13;3.15;;;9.00;99.90;;;;;;5129830;28;20524;-79
2023/03/31 02:26:52;;;;;;;11.73;2.28;;;9.00;99.90;;;;;;5129599;28;20040;-79
2023/03/31 02:29:19;;;;;;;13.48;2.78;;;9.10;99.90;;;;;;5146516;28;20039;-79
2023/03/31 02:31:58;;;;;;;11.07;2.47;;;9.10;99.90;;;;;;5128972;28;20368;-80
2023/03/31 02:34:25;;;;;;;15.85;2.40;;;9.10;99.90;;;;;;5109154;28;20039;-79
2023/03/31 02:36:52;;;;;;;14.57;3.13;;;9.00;99.90;;;;;;5117831;28;20038;-80
2023/03/31 02:39:24;;;;;;;16.42;2.55;;;9.00;99.90;;;;;;5112801;28;20054;-79
2023/03/31 02:41:51;;;;;;;18.17;3.17;;;9.00;99.90;;;;;;5129239;28;20109;-79
2023/03/31 02:44:19;;;;;;;13.35;2.70;;;9.10;99.90;;;;;;5112598;28;20039;-79
2023/03/31 02:46:46;;;;;;;13.18;2.65;;;9.10;99.90;;;;;;5112513;28;20065;-79
2023/03/31 02:49:16;;;;;;;14.52;3.15;;;9.10;99.90;;;;;;5096131;28;20079;-79
2023/03/31 02:52:09;;;;;;;16.10;2.72;;;9.10;99.90;;;;;;5129070;28;20078;-79
2023/03/31 02:55:05;;;;;;;18.25;3.28;;;9.10;99.90;;;;;;5128846;28;20047;-80
2023/03/31 02:57:53;;;;;;;19.33;2.93;;;9.10;99.90;;;;;;5123342;28;20051;-79
2023/03/31 03:00:58;;;;;;;19.60;3.67;;;9.10;99.90;;;;;;5146351;28;20089;-79
2023/03/31 03:03:44;;;;;;;14.95;2.85;;;9.10;99.90;;;;;;5129325;28;20048;-80
2023/03/31 03:06:32;;;;;;;16.33;3.17;;;9.10;99.90;;;;;;5129112;28;20043;-81
2023/03/31 03:09:10;;;;;;;11.63;2.95;;;9.10;99.90;;;;;;5129084;28;20126;-82
2023/03/31 03:11:41;;;;;;;13.02;2.60;;;9.10;99.90;;;;;;5129455;28;20042;-81
2023/03/31 03:14:16;;;;;;;9.98;2.92;;;9.10;99.90;;;;;;5128632;28;20052;-81
2023/03/31 03:16:50;;;;;;;13.02;3.08;;;9.10;99.90;;;;;;5129264;28;20069;-81
2023/03/31 03:19:20;;;;;;;14.05;3.03;;;9.00;99.90;;;;;;5128769;28;20505;-81
2023/03/31 03:21:47;;;;;;;14.02;3.13;;;9.10;99.90;;;;;;5145857;28;20035;-82
2023/03/31 03:24:16;;;;;;;10.50;2.65;;;9.10;99.90;;;;;;5091886;28;20125;-81
2023/03/31 03:26:46;;;;;;;13.88;2.72;;;9.10;99.90;;;;;;5108701;28;20059;-81
2023/03/31 03:29:13;;;;;;;15.90;3.20;;;9.20;99.90;;;;;;5091912;28;20055;-81
2023/03/31 03:31:41;;;;;;;14.43;3.00;;;9.20;99.90;;;;;;5092215;28;20044;-81
2023/03/31 03:34:08;;;;;;;15.48;3.60;;;9.20;99.90;;;;;;5106317;28;20039;-81
2023/03/31 03:36:38;;;;;;;10.63;2.95;;;9.20;99.90;;;;;;5129196;28;20444;-81
2023/03/31 03:39:06;;;;;;;13.43;3.10;;;9.20;99.90;;;;;;5145750;28;20051;-82
2023/03/31 03:41:33;;;;;;;17.90;3.22;;;9.20;99.90;;;;;;5112450;28;20101;-81
2023/03/31 03:44:00;;;;;;;13.73;3.05;;;9.30;99.90;;;;;;5111952;28;20032;-81
2023/03/31 03:46:27;;;;;;;17.13;3.65;;;9.30;99.90;;;;;;5108765;28;20040;-81
2023/03/31 03:48:54;;;;;;;13.45;3.33;;;9.30;99.90;;;;;;5092583;28;20044;-81
2023/03/31 03:51:22;;;;;;;8.73;2.58;;;9.30;99.90;;;;;;5095827;28;20036;-81
2023/03/31 03:53:49;;;;;;;10.18;2.95;;;9.30;99.90;;;;;;5111868;28;20475;-81
2023/03/31 03:56:15;;;;;;;12.85;2.50;;;9.20;99.90;;;;;;5111987;28;20063;-81
2023/03/31 03:58:42;;;;;;;12.93;2.60;;;9.30;99.90;;;;;;5095664;28;20050;-81
2023/03/31 04:01:09;;;;;;;11.27;2.97;;;9.30;99.90;;;;;;5095664;28;20081;-82
2023/03/31 04:03:36;;;;;;;8.23;2.45;;;9.30;99.90;;;;;;5112235;28;20067;-81
2023/03/31 04:06:03;;;;;;;10.60;3.10;;;9.30;99.90;;;;;;5078364;28;20131;-81
2023/03/31 04:08:29;;;;;;;10.20;2.50;;;9.30;99.90;;;;;;5112429;28;20495;-81
2023/03/31 04:10:56;;;;;;;11.93;2.58;;;9.30;99.90;;;;;;5090688;28;20105;-81
2023/03/31 04:13:23;;;;;;;13.80;3.20;;;9.30;99.90;;;;;;5111494;28;20063;-81
2023/03/31 04:15:50;;;;;;;11.70;2.47;;;9.30;99.90;;;;;;5095142;28;20056;-81
2023/03/31 04:18:22;;;;;;;11.18;2.88;;;9.30;99.90;;;;;;5095159;28;20046;-81
2023/03/31 04:21:02;;;;;;;11.60;2.63;;;9.40;99.90;;;;;;5112523;28;20051;-82
2023/03/31 04:23:30;;;;;;;10.48;3.20;;;9.30;99.90;;;;;;5096767;28;20039;-81
2023/03/31 04:25:57;;;;;;;9.13;2.83;;;9.30;99.90;;;;;;5111876;28;20203;-81
2023/03/31 04:28:25;;;;;;;10.70;2.22;;;9.30;99.90;;;;;;5095089;28;20040;-81
2023/03/31 04:30:57;;;;;;;10.82;2.60;;;9.30;99.90;;;;;;5095236;28;20042;-82
2023/03/31 04:33:24;;;;;;;14.27;2.70;;;9.20;99.90;;;;;;5095376;28;20065;-81
2023/03/31 04:35:51;;;;;;;11.35;2.72;;;9.30;99.90;;;;;;5094692;28;20048;-82
2023/03/31 04:38:20;;;;;;;11.93;2.90;;;9.30;99.90;;;;;;5094500;28;20040;-82
2023/03/31 04:40:49;;;;;;;11.02;2.50;;;9.30;99.90;;;;;;5094653;28;20032;-82
2023/03/31 04:43:17;;;;;;;9.63;2.60;;;9.30;99.90;;;;;;5110698;28;20123;-82
2023/03/31 04:45:44;;;;;;;12.85;2.75;;;9.30;99.90;;;;;;5111104;28;20047;-82
2023/03/31 04:48:11;;;;;;;10.35;2.75;;;9.30;99.90;;;;;;5094405;28;20448;-82
2023/03/31 04:50:39;;;;;;;8.65;2.50;;;9.30;99.90;;;;;;5094686;28;20553;-81
2023/03/31 04:53:05;;;;;;;8.70;2.58;;;9.30;99.90;;;;;;5094529;28;20089;-82
2023/03/31 04:55:32;;;;;;;7.35;2.88;;;9.30;99.90;;;;;;5107583;28;20036;-81
2023/03/31 04:58:00;;;;;;;10.07;3.38;;;9.30;99.90;;;;;;5111107;28;20396;-81
2023/03/31 05:00:27;;;;;;;14.50;3.13;;;9.30;99.90;;;;;;5110603;28;20044;-81
2023/03/31 05:02:54;;;;;;;11.80;2.75;;;9.30;99.90;;;;;;5111202;28;20039;-81
2023/03/31 05:05:21;;;;;;;7.43;2.85;;;9.30;99.90;;;;;;5110489;28;20044;-81
2023/03/31 05:07:48;;;;;;;9.45;3.33;;;9.30;99.90;;;;;;5110844;28;20507;-81
2023/03/31 05:10:14;;;;;;;7.78;3.30;;;9.30;99.90;;;;;;5110109;28;20036;-81
2023/03/31 05:12:41;;;;;;;6.68;2.38;;;9.30;99.90;;;;;;5110204;28;20039;-81
2023/03/31 05:15:08;;;;;;;10.57;3.13;;;9.30;99.90;;;;;;5110082;28;20048;-81
2023/03/31 05:17:35;;;;;;;8.23;2.80;;;9.30;99.90;;;;;;5093529;28;20071;-81
2023/03/31 05:20:06;;;;;;;9.65;3.17;;;9.30;99.90;;;;;;5110565;28;20124;-81
2023/03/31 05:22:38;;;;;;;11.63;2.92;;;9.30;99.90;;;;;;5093659;28;20032;-81
2023/03/31 05:25:06;;;;;;;12.43;3.10;;;9.30;99.90;;;;;;5110073;28;20040;-81
2023/03/31 05:27:34;;;;;;;14.60;3.00;;;9.30;99.90;;;;;;5110080;28;20135;-81
2023/03/31 05:30:03;;;;;;;10.18;2.60;;;9.30;99.90;;;;;;5109738;28;20095;-81
2023/03/31 05:32:29;;;;;;;8.82;3.00;;;9.30;99.90;;;;;;5108782;28;20408;-81
2023/03/31 05:34:56;;;;;;;7.03;2.95;;;9.30;99.90;;;;;;5126093;28;20044;-81
2023/03/31 05:37:24;;;;;;;8.48;2.90;;;9.30;99.90;;;;;;5092580;28;20040;-81
2023/03/31 05:39:51;;;;;;;9.10;2.70;;;9.30;99.90;;;;;;5092919;28;20040;-81
2023/03/31 05:42:19;;;;;;;10.25;2.35;;;9.30;99.90;;;;;;5125874;28;20036;-81
2023/03/31 05:44:45;;;;;;;9.27;2.45;;;9.30;99.90;;;;;;5116811;28;20085;-81
2023/03/31 05:47:15;;;;;;;10.05;2.85;;;9.30;99.90;;;;;;5096713;28;20035;-81
2023/03/31 05:49:42;;;;;;;7.57;2.70;;;9.30;99.90;;;;;;5130247;28;20075;-81
2023/03/31 05:52:09;;;;;;;9.80;2.65;;;9.30;99.90;;;;;;5129969;28;20452;-81
2023/03/31 05:54:36;;;;;;;8.32;2.75;;;9.30;99.90;;;;;;5129944;28;20047;-82
2023/03/31 05:57:03;;;;;;;9.77;2.35;;;9.30;99.90;;;;;;5112050;28;20044;-81
2023/03/31 05:59:30;;;;;;;10.57;2.67;;;9.30;99.90;;;;;;5130065;28;20035;-81
2023/03/31 06:01:57;;;;;;;10.15;2.45;;;9.30;99.90;;;;;;5130099;28;20084;-81
2023/03/31 06:04:23;;;;;;;6.95;2.80;;;9.30;99.90;;;;;;5129883;28;20560;-81
2023/03/31 06:06:50;;;;;;;7.32;2.50;;;9.30;99.90;;;;;;5113377;28;20043;-81
2023/03/31 06:09:17;;;;;;;7.50;2.67;;;9.30;99.90;;;;;;5109048;28;20040;-83
2023/03/31 06:11:44;;;;;;;7.53;2.63;;;9.30;99.90;;;;;;5108637;28;20510;-81
2023/03/31 06:14:11;;;;;;;10.23;3.30;;;9.30;99.90;;;;;;5096200;28;20559;-81
2023/03/31 06:16:38;;;;;;;8.18;2.97;;;9.30;99.90;;;;;;5109493;28;20123;-81
2023/03/31 06:19:05;;;;;;;10.98;3.40;;;9.30;99.90;;;;;;5092916;28;20058;-81
2023/03/31 06:21:32;;;;;;;12.35;3.42;;;9.40;99.90;;;;;;5125934;28;20036;-81
2023/03/31 06:23:59;;;;;;;8.35;3.00;;;9.40;99.90;;;;;;5093196;28;20052;-81
2023/03/31 06:26:26;;;;;;;8.80;2.72;;;9.40;99.90;;;;;;5109075;28;20137;-81
2023/03/31 06:28:53;;;;;;;8.65;3.10;;;9.40;99.90;;;;;;5124023;28;20131;-81
2023/03/31 06:31:22;;;;;;;10.43;3.40;;;9.40;99.90;;;;;;5096119;28;20093;-81
2023/03/31 06:33:49;;;;;;;11.20;3.50;;;9.40;99.90;;;;;;5129218;28;20046;-81
2023/03/31 06:36:21;;;;;;;10.43;3.20;;;9.50;99.90;;;;;;5096082;28;20407;-81
2023/03/31 06:38:49;;;;;;;8.00;3.03;;;9.50;99.90;;;;;;5129477;28;20631;-81
2023/03/31 06:41:19;;;;;;;9.35;3.25;;;9.50;99.90;;;;;;5112999;28;20035;-81
2023/03/31 06:43:46;;;;;;;9.98;2.90;;;9.60;99.90;;;;;;5113480;28;20047;-81
2023/03/31 06:46:13;;;;;;;9.40;3.50;;;9.60;99.90;;;;;;5109623;28;20040;-81
2023/03/31 06:48:40;;;;;;;8.00;3.20;;;9.60;99.90;;;;;;5117722;28;20039;-81
2023/03/31 06:51:08;;;;;;;14.00;3.33;;;9.60;99.90;;;;;;5101254;28;20047;-80
2023/03/31 06:53:35;;;;;;;10.13;3.00;;;9.60;99.90;;;;;;5076385;28;20050;-81
2023/03/31 06:56:04;;;;;;;10.85;3.13;;;9.60;99.90;;;;;;5110000;28;20040;-81
2023/03/31 06:58:31;;;;;;;9.25;2.85;;;9.60;99.90;;;;;;5106625;28;20046;-81
2023/03/31 07:01:00;;;;;;;7.55;3.40;;;9.60;99.90;;;;;;5128645;28;21408;-81
2023/03/31 07:03:28;;;;;;;9.57;3.25;;;9.60;99.90;;;;;;5111391;28;20035;-81
2023/03/31 07:05:55;;;;;;;7.93;3.22;;;9.70;99.90;;;;;;5123914;28;20040;-81
2023/03/31 07:08:23;;;;;;;10.05;3.33;;;9.70;99.90;;;;;;5101156;28;20038;-81
2023/03/31 07:10:56;;;;;;;7.97;3.30;;;9.70;99.90;;;;;;5111315;28;20067;-81
2023/03/31 07:13:24;;;;;;;13.00;3.42;;;9.70;99.90;;;;;;5125661;28;20146;-81
2023/03/31 07:15:51;;;;;;;9.73;3.42;;;9.80;99.90;;;;;;5109727;28;20040;-81
2023/03/31 07:18:18;;;;;;;7.68;3.22;;;9.70;99.90;;;;;;5140642;28;20036;-81
2023/03/31 07:20:51;;;;;;;7.40;2.78;;;9.80;99.90;;;;;;5085993;28;20059;-81
2023/03/31 07:23:18;;;;;;;9.27;3.08;;;9.70;99.90;;;;;;5094262;28;20040;-81
2023/03/31 07:25:46;;;;;;;9.60;3.25;;;9.70;99.90;;;;;;5112984;28;20047;-81
2023/03/31 07:28:13;;;;;;;7.32;2.70;;;9.70;99.90;;;;;;5113121;28;20040;-81
2023/03/31 07:30:40;;;;;;;7.00;2.97;;;9.80;99.90;;;;;;5079708;28;20403;-80
2023/03/31 07:33:07;;;;;;;5.68;2.58;;;9.80;99.90;;;;;;5112749;28;20381;-80
2023/03/31 07:35:37;;;;;;;7.68;2.90;;;9.80;99.90;;;;;;5112563;28;20404;-81
2023/03/31 07:38:04;;;;;;;8.35;2.95;;;9.80;99.90;;;;;;5096238;28;20047;-80
2023/03/31 07:40:31;;;;;;;13.63;3.33;;;9.80;99.90;;;;;;5095859;28;20039;-81
2023/03/31 07:42:57;;;;;;;10.43;3.65;;;9.80;99.90;;;;;;5078854;28;20118;-81
2023/03/31 07:45:25;;;;;;;8.30;3.72;;;9.80;99.90;;;;;;5098363;28;20032;-81
2023/03/31 07:47:52;;;;;;;11.52;3.60;;;9.80;99.90;;;;;;5133410;28;20123;-81
2023/03/31 07:50:20;;;;;;;8.10;3.58;;;9.80;99.90;;;;;;5121748;28;20492;-81
2023/03/31 07:52:47;;;;;;;7.20;3.22;;;9.80;99.90;;;;;;5122732;28;20131;-81
2023/03/31 07:55:14;;;;;;;12.63;4.15;;;9.80;99.90;;;;;;5108783;28;20115;-81
2023/03/31 07:57:42;;;;;;;8.90;3.63;;;9.80;99.90;;;;;;5136237;28;20043;-81
2023/03/31 08:00:11;;;;;;;7.65;3.70;;;9.80;99.90;;;;;;5131902;28;20061;-81
2023/03/31 08:02:38;;;;;;;11.35;3.92;;;9.80;99.90;;;;;;5099464;28;20122;-81
2023/03/31 08:05:06;;;;;;;7.95;3.97;;;9.60;99.90;;;;;;5106051;28;20419;-81
2023/03/31 08:07:38;;;;;;;11.00;3.67;;;9.80;99.90;;;;;;5117840;28;20051;-81
2023/03/31 08:10:08;;;;;;;6.05;3.20;;;9.80;99.90;;;;;;5112663;28;20078;-81
2023/03/31 08:12:35;;;;;;;7.93;3.38;;;9.80;99.90;;;;;;5112346;28;20055;-81
2023/03/31 08:15:02;;;;;;;8.25;3.10;;;9.80;99.90;;;;;;5094722;28;20098;-81
2023/03/31 08:17:29;;;;;;;8.75;3.05;;;9.80;99.90;;;;;;5112180;28;20036;-81
2023/03/31 08:19:56;;;;;;;8.73;2.83;;;9.80;99.90;;;;;;5107016;28;20067;-81
2023/03/31 08:22:23;;;;;;;9.55;2.83;;;9.80;99.90;;;;;;5098921;28;20499;-81
2023/03/31 08:24:49;;;;;;;9.82;3.10;;;9.80;99.90;;;;;;5132251;28;20040;-81
2023/03/31 08:27:16;;;;;;;9.25;3.15;;;9.80;99.90;;;;;;5098902;28;20047;-81
2023/03/31 08:29:43;;;;;;;7.30;2.97;;;9.80;99.90;;;;;;5115086;28;20040;-82
2023/03/31 08:32:09;;;;;;;9.85;3.08;;;9.90;99.90;;;;;;5094842;28;20040;-81
2023/03/31 08:34:36;;;;;;;6.78;3.00;;;9.80;99.90;;;;;;5094486;28;20488;-81
2023/03/31 08:37:08;;;;;;;9.10;3.17;;;9.90;99.90;;;;;;5111863;28;20434;-80
2023/03/31 08:39:36;;;;;;;6.40;2.97;;;10.40;99.90;;;;;;5114848;28;20035;-79
2023/03/31 08:42:42;;;;;;;14.20;3.47;;;9.90;99.90;;;;;;5121305;28;20040;-79
2023/03/31 08:45:29;;;;;;;9.70;3.28;;;9.90;99.90;;;;;;5109874;28;20047;-79
2023/03/31 08:48:18;;;;;;;7.45;3.30;;;9.90;99.90;;;;;;5125730;28;20040;-79
2023/03/31 08:50:51;;;;;;;12.10;3.50;;;9.50;99.90;;;;;;5148992;28;20043;-79
2023/03/31 08:53:31;;;;;;;7.35;3.30;;;10.00;99.90;;;;;;5132075;28;20504;-80
2023/03/31 08:56:00;;;;;;;7.50;3.70;;;10.10;99.90;;;;;;5131844;28;20046;-81
2023/03/31 08:58:40;;;;;;;9.63;3.65;;;10.10;99.90;;;;;;5099006;28;20181;-81
2023/03/31 09:01:31;;;;;;;10.88;3.67;;;10.20;99.90;;;;;;5131914;28;20043;-81
2023/03/31 09:04:36;;;;;;;9.75;4.03;;;10.20;99.90;;;;;;5132047;28;20564;-81
2023/03/31 09:07:43;;;;;;;10.70;3.90;;;10.20;99.90;;;;;;5131768;28;20092;-81
2023/03/31 09:10:19;;;;;;;11.55;4.20;;;10.30;99.90;;;;;;5130799;28;20079;-81
2023/03/31 09:13:02;;;;;;;10.80;4.80;;;10.30;99.90;;;;;;5131536;28;20035;-81
2023/03/31 09:15:54;;;;;;;13.98;4.85;;;10.30;99.90;;;;;;5131546;28;20089;-81
2023/03/31 09:18:28;;;;;;;14.43;5.25;;;10.10;99.90;;;;;;5131722;28;20065;-81
2023/03/31 09:21:19;;;;;;;13.30;5.30;;;10.40;99.90;;;;;;5131387;28;20426;-81
2023/03/31 09:23:58;;;;;;;12.05;5.20;;;10.40;99.90;;;;;;5131261;28;20115;-81
2023/03/31 09:26:28;;;;;;;7.90;4.47;;;10.40;99.90;;;;;;5131341;28;20054;-81
2023/03/31 09:28:58;;;;;;;12.00;4.78;;;10.40;99.90;;;;;;5130926;28;20042;-81
2023/03/31 09:31:26;;;;;;;9.02;4.78;;;10.40;99.90;;;;;;5131405;28;20050;-81
2023/03/31 09:33:59;;;;;;;9.68;4.18;;;10.40;99.90;;;;;;5114054;28;20500;-81
2023/03/31 09:36:27;;;;;;;11.00;4.30;;;10.40;99.90;;;;;;5148408;28;20040;-81
2023/03/31 09:38:54;;;;;;;9.77;4.30;;;10.40;99.90;;;;;;5114640;28;20183;-81
2023/03/31 09:41:21;;;;;;;10.82;4.28;;;10.40;99.90;;;;;;5114388;28;20160;-81
2023/03/31 09:43:50;;;;;;;11.07;4.40;;;10.50;99.90;;;;;;5114109;28;20129;-81
2023/03/31 09:46:32;;;;;;;7.70;3.75;;;10.50;99.90;;;;;;5114346;28;20049;-81
2023/03/31 09:49:16;;;;;;;7.57;4.20;;;10.50;99.90;;;;;;5130660;28;20043;-81
2023/03/31 09:51:47;;;;;;;14.00;3.80;;;10.50;99.90;;;;;;5130801;28;20095;-81
2023/03/31 09:54:48;;;;;;;10.55;3.63;;;10.50;99.90;;;;;;5130825;28;20054;-81
2023/03/31 09:57:29;;;;;;;10.80;3.97;;;10.50;99.90;;;;;;5118986;28;20043;-81
2023/03/31 10:00:15;;;;;;;9.40;3.58;;;10.50;99.90;;;;;;5110215;28;20065;-81
2023/03/31 10:03:06;;;;;;;10.35;4.05;;;10.50;99.90;;;;;;5110056;28;20869;-81
2023/03/31 10:05:38;;;;;;;10.25;3.80;;;10.40;99.90;;;;;;5123843;28;20081;-79
2023/03/31 10:08:33;;;;;;;9.27;3.63;;;10.50;99.90;;;;;;5113877;28;20036;-79
2023/03/31 10:11:03;;;;;;;7.80;3.13;;;10.60;99.90;;;;;;5145946;28;20051;-79
2023/03/31 10:13:57;;;;;;;7.22;3.42;;;10.60;99.90;;;;;;5129882;28;20055;-79
2023/03/31 10:16:28;;;;;;;7.13;2.85;;;10.60;99.90;;;;;;5113848;28;20052;-79
2023/03/31 10:19:09;;;;;;;10.25;3.08;;;10.60;99.90;;;;;;5146685;28;20051;-81
2023/03/31 10:21:37;;;;;;;9.00;3.17;;;10.70;99.90;;;;;;5115467;28;20064;-79
2023/03/31 10:24:08;;;;;;;7.93;2.67;;;10.70;99.90;;;;;;5109449;28;20078;-79
2023/03/31 10:26:35;;;;;;;6.55;2.30;;;10.80;99.90;;;;;;5092985;28;20044;-79
2023/03/31 10:29:11;;;;;;;9.32;2.47;;;10.80;99.90;;;;;;5109819;28;20399;-79
2023/03/31 10:31:38;;;;;;;9.70;2.72;;;10.80;99.90;;;;;;5123691;28;20183;-78
2023/03/31 10:34:08;;;;;;;8.00;2.30;;;10.80;99.90;;;;;;5076144;28;20097;-79
2023/03/31 10:36:35;;;;;;;8.80;2.70;;;10.90;99.90;;;;;;5114978;28;20487;-78
2023/03/31 10:39:06;;;;;;;7.72;2.15;;;10.90;99.90;;;;;;5096246;28;20090;-79
2023/03/31 10:41:33;;;;;;;5.57;2.05;;;10.90;99.90;;;;;;5129686;28;20085;-79
2023/03/31 10:44:03;;;;;;;4.95;1.80;;;11.00;99.90;;;;;;5109565;28;20390;-80
2023/03/31 10:46:51;;;;;;;7.00;2.30;;;11.00;99.90;;;;;;5111524;28;20395;-79
2023/03/31 10:49:20;;;;;;;4.85;1.90;;;11.10;99.90;;;;;;5130157;28;20035;-80
2023/03/31 10:51:53;;;;;;;5.43;1.75;;;11.20;99.90;;;;;;5129889;28;20043;-79
2023/03/31 10:54:20;;;;;;;7.93;1.90;;;11.10;99.90;;;;;;5147001;28;20061;-79
2023/03/31 10:57:02;;;;;;;3.75;1.63;;;11.10;99.90;;;;;;5113060;28;20039;-79
2023/03/31 10:59:45;;;;;;;5.35;1.95;;;11.10;99.90;;;;;;5127393;28;20063;-79
2023/03/31 11:02:39;;;;;;;6.15;1.80;;;11.20;99.90;;;;;;5119213;28;20043;-79
2023/03/31 11:05:26;;;;;;;5.68;1.55;;;11.30;99.90;;;;;;5115981;28;20050;-79
2023/03/31 11:08:11;;;;;;;;;;;11.30;99.90;;;;;;5113921;28;20493;-79
2023/03/31 11:10:40;;;;;;;4.40;1.83;;;11.40;99.90;;;;;;5113845;28;19916;-79
2023/03/31 11:13:20;;;;;;;4.35;1.70;;;11.40;99.90;;;;;;5113718;28;20090;-80
2023/03/31 11:16:23;;;;;;;5.78;2.00;;;11.40;99.90;;;;;;5113079;28;20055;-79
2023/03/31 11:19:07;;;;;;;4.68;1.80;;;11.50;99.90;;;;;;5132236;28;20097;-79
2023/03/31 11:22:00;;;;;;;4.60;1.80;;;11.50;99.90;;;;;;5128356;28;20376;-79
2023/03/31 11:24:49;;;;;;;3.47;1.50;;;11.50;99.90;;;;;;5112689;28;20492;-79
2023/03/31 11:27:35;;;;;;;5.20;2.10;;;11.50;99.90;;;;;;5112425;28;20472;-79
2023/03/31 11:30:32;;;;;;;7.55;2.20;;;11.50;99.90;;;;;;5118839;28;20484;-81
2023/03/31 11:33:17;;;;;;;4.10;1.92;;;11.40;99.90;;;;;;5114152;28;20055;-81
2023/03/31 11:35:58;;;;;;;5.68;1.85;;;11.50;99.90;;;;;;5114540;28;20407;-81
2023/03/31 11:38:49;;;;;;;7.03;2.15;;;11.60;99.90;;;;;;5112129;28;20032;-81
2023/03/31 11:41:31;;;;;;;3.95;1.80;;;11.80;99.90;;;;;;5129286;28;20039;-81
2023/03/31 11:44:05;;;;;;;3.35;1.80;;;11.90;99.90;;;;;;5114748;28;20427;-81
2023/03/31 11:46:50;;;;;;;4.90;1.90;;;12.10;99.90;;;;;;5131907;28;20052;-81
2023/03/31 11:49:22;;;;;;;4.85;2.10;;;12.20;99.90;;;;;;5111796;28;20047;-81
2023/03/31 11:52:08;;;;;;;7.10;1.92;;;12.40;99.90;;;;;;5119733;28;20038;-81
2023/03/31 11:54:54;;;;;;;6.20;2.35;;;12.40;99.90;;;;;;5120767;28;20044;-81
2023/03/31 11:57:28;;;;;;;5.55;2.20;;;12.50;99.90;;;;;;5116180;28;20028;-82
2023/03/31 12:00:02;;;;;;;6.43;2.10;;;12.60;99.90;;;;;;5132219;28;20078;-82
2023/03/31 12:03:00;;;;;;;5.70;2.20;;;12.50;99.90;;;;;;5125544;28;20032;-82
2023/03/31 12:05:31;;;;;;;4.85;1.92;;;12.50;99.90;;;;;;5118247;28;20056;-82
2023/03/31 12:08:11;;;;;;;4.35;1.73;;;12.60;99.90;;;;;;5115285;28;20040;-82
2023/03/31 12:10:44;;;;;;;6.20;2.17;;;12.60;99.90;;;;;;5110353;28;20032;-82
2023/03/31 12:13:30;;;;;;;4.15;1.42;;;12.70;99.90;;;;;;5117284;28;20043;-81
2023/03/31 12:16:04;;;;;;;5.45;1.50;;;12.80;99.90;;;;;;5120486;28;20059;-81
2023/03/31 12:18:40;;;;;;;4.30;1.42;;;12.80;99.90;;;;;;5112457;28;20043;-82
2023/03/31 12:21:08;;;;;;;;;;;12.80;99.90;;;;;;5112118;28;20122;-81
2023/03/31 12:23:40;;;;;;;5.07;1.25;;;12.70;99.90;;;;;;5119449;28;19920;-81
2023/03/31 12:26:29;;;;;;;5.55;1.60;;;12.60;99.90;;;;;;5132010;28;20462;-81
2023/03/31 12:29:03;;;;;;;6.43;1.60;;;12.60;99.90;;;;;;5132133;28;20039;-82
2023/03/31 12:31:31;;;;;;;6.57;1.48;;;12.50;99.90;;;;;;5129444;28;20560;-82
2023/03/31 12:34:07;;;;;;;5.15;1.58;;;12.50;99.90;;;;;;5095133;28;20404;-82
2023/03/31 12:36:56;;;;;;;6.03;1.70;;;12.40;99.90;;;;;;5115214;28;20101;-82
2023/03/31 12:39:52;;;;;;;5.18;1.42;;;12.40;99.90;;;;;;5127953;28;20036;-82
2023/03/31 12:42:29;;;;;;;3.92;1.60;;;12.50;99.90;;;;;;5110738;28;20105;-82
2023/03/31 12:45:14;;;;;;;4.78;1.80;;;12.60;99.90;;;;;;5111070;28;20049;-82
2023/03/31 12:48:02;;;;;;;7.22;1.90;;;12.80;99.90;;;;;;5110880;28;20036;-82
2023/03/31 12:50:38;;;;;;;5.15;1.70;;;12.80;99.90;;;;;;5124358;28;20039;-81
2023/03/31 12:53:32;;;;;;;6.65;1.90;;;12.90;99.90;;;;;;5119113;28;20035;-83
2023/03/31 12:55:59;;;;;;;5.82;1.75;;;13.10;99.90;;;;;;5131090;28;20044;-83
2023/03/31 12:58:28;;;;;;;5.40;1.63;;;13.20;99.90;;;;;;5110162;28;20043;-82
2023/03/31 13:01:06;;;;;;;7.47;2.25;;;13.10;99.90;;;;;;5110362;28;20512;-82
2023/03/31 13:03:33;;;;;;;5.88;1.50;;;13.20;99.90;;;;;;5125659;28;20122;-82
2023/03/31 13:06:04;;;;;;;4.53;1.60;;;13.10;99.90;;;;;;5131185;28;20625;-82
2023/03/31 13:08:52;;;;;;;8.20;1.85;;;13.00;99.90;;;;;;5093217;28;20043;-82
2023/03/31 13:11:38;;;;;;;8.05;2.42;;;13.00;99.90;;;;;;5126975;28;20040;-82
2023/03/31 13:14:21;;;;;;;11.07;2.40;;;13.00;99.90;;;;;;5110988;28;20526;-82
2023/03/31 13:16:50;;;;;;;10.88;2.22;;;13.10;99.90;;;;;;5109507;28;20040;-83
2023/03/31 13:19:33;;;;;;;9.25;2.08;;;13.10;99.90;;;;;;5110169;28;20411;-82